Time;durP1;ratioP1;P1;durP2;ratioP2;P2;SDS_P1;SDS_P2;PMS_P1;PMS_P2;Temp;Humidity;BMP_temperature;BMP_pressure;BME280_temperature;BME280_humidity;BME280_pressure;Samples;Min_cycle;Max_cycle;Signal;HPM_P1;HPM_P2
2022/08/28 00:00:29;;;;;;;24.47;18.70;;;;;;;;;;4901625;29;20454;-43
2022/08/28 00:02:56;;;;;;;23.27;18.07;;;;;;;;;;4897271;29;20185;-43
2022/08/28 00:05:23;;;;;;;24.47;19.97;;;;;;;;;;4896406;28;20902;-41
2022/08/28 00:07:50;;;;;;;25.87;21.50;;;;;;;;;;4900086;29;20211;-42
2022/08/28 00:10:17;;;;;;;21.20;18.00;;;;;;;;;;4901761;29;20168;-43
2022/08/28 00:12:44;;;;;;;27.80;23.83;;;;;;;;;;4899814;29;20278;-43
2022/08/28 00:15:11;;;;;;;26.43;21.13;;;;;;;;;;4899293;29;20265;-43
2022/08/28 00:17:38;;;;;;;22.27;19.87;;;;;;;;;;4900343;29;20180;-41
2022/08/28 00:20:05;;;;;;;26.03;20.47;;;;;;;;;;4898594;29;20187;-42
2022/08/28 00:22:31;;;;;;;22.83;19.70;;;;;;;;;;4900644;29;20610;-42
2022/08/28 00:24:57;;;;;;;21.77;18.57;;;;;;;;;;4898674;29;20707;-41
2022/08/28 00:30:08;;;;;;;22.93;18.40;;;;;;;;;;4900731;29;20251;-43
2022/08/28 00:32:34;;;;;;;23.23;19.30;;;;;;;;;;4900141;29;20173;-43
2022/08/28 00:35:01;;;;;;;26.53;22.47;;;;;;;;;;4899399;29;20183;-42
2022/08/28 00:37:28;;;;;;;24.20;21.27;;;;;;;;;;4896061;29;20266;-42
2022/08/28 00:39:54;;;;;;;29.87;20.80;;;;;;;;;;4899452;29;20187;-43
2022/08/28 00:42:20;;;;;;;24.50;21.00;;;;;;;;;;4901168;29;20175;-43
2022/08/28 00:44:46;;;;;;;23.37;19.93;;;;;;;;;;4898100;29;20741;-42
2022/08/28 00:47:12;;;;;;;22.90;18.97;;;;;;;;;;4898033;29;20292;-41
2022/08/28 00:49:45;;;;;;;27.37;22.57;;;;;;;;;;4897392;29;20649;-42
2022/08/28 00:52:14;;;;;;;31.40;26.37;;;;;;;;;;4894456;29;20456;-42
2022/08/28 00:54:53;;;;;;;30.77;26.80;;;;;;;;;;4895844;29;20172;-41
2022/08/28 00:57:21;;;;;;;34.27;29.43;;;;;;;;;;4898150;29;20610;-41
2022/08/28 00:59:47;;;;;;;29.60;24.87;;;;;;;;;;4903100;29;20930;-43
2022/08/28 01:02:13;;;;;;;36.77;30.50;;;;;;;;;;4897678;29;20819;-42
2022/08/28 01:04:39;;;;;;;34.63;26.23;;;;;;;;;;4895783;29;20292;-43
2022/08/28 01:07:08;;;;;;;30.80;25.40;;;;;;;;;;4896640;29;20251;-42
2022/08/28 01:09:34;;;;;;;31.17;25.47;;;;;;;;;;4897047;29;20327;-41
2022/08/28 01:12:20;;;;;;;34.03;26.60;;;;;;;;;;4901623;29;20197;-43
2022/08/28 01:14:48;;;;;;;32.43;26.13;;;;;;;;;;4896782;29;20223;-42
2022/08/28 01:17:15;;;;;;;43.93;33.00;;;;;;;;;;4896974;29;20187;-43
2022/08/28 01:19:55;;;;;;;36.17;29.50;;;;;;;;;;4897917;29;20183;-41
2022/08/28 01:22:27;;;;;;;35.63;28.60;;;;;;;;;;4901825;29;20203;-43
2022/08/28 01:24:55;;;;;;;34.30;28.47;;;;;;;;;;4897474;29;20196;-41
2022/08/28 01:27:22;;;;;;;37.87;30.93;;;;;;;;;;4895442;29;20799;-43
2022/08/28 01:29:48;;;;;;;42.00;32.90;;;;;;;;;;4899445;29;20256;-43
2022/08/28 01:32:25;;;;;;;46.80;36.37;;;;;;;;;;4901804;28;21276;-41
2022/08/28 01:34:51;;;;;;;46.77;35.60;;;;;;;;;;4896998;29;21150;-42
2022/08/28 01:37:17;;;;;;;40.20;33.13;;;;;;;;;;4897527;29;20259;-43
2022/08/28 01:39:44;;;;;;;48.60;37.93;;;;;;;;;;4898003;29;20180;-41
2022/08/28 01:42:10;;;;;;;48.10;37.70;;;;;;;;;;4898937;29;20616;-42
2022/08/28 01:44:36;;;;;;;43.53;34.13;;;;;;;;;;4899666;29;20814;-43
2022/08/28 01:47:03;;;;;;;53.83;42.20;;;;;;;;;;4897318;29;20263;-43
2022/08/28 01:49:29;;;;;;;52.00;38.97;;;;;;;;;;4895677;29;20942;-41
2022/08/28 01:51:55;;;;;;;45.33;37.13;;;;;;;;;;4897377;29;20410;-43
2022/08/28 01:54:22;;;;;;;46.97;34.50;;;;;;;;;;4899772;29;20267;-43
2022/08/28 01:56:48;;;;;;;45.97;36.50;;;;;;;;;;4912385;28;20375;-42
2022/08/28 01:59:14;;;;;;;46.27;37.87;;;;;;;;;;4895772;29;20497;-42
2022/08/28 02:01:41;;;;;;;45.33;36.17;;;;;;;;;;4895692;29;20568;-43
2022/08/28 02:04:08;;;;;;;39.30;32.93;;;;;;;;;;4897200;29;20186;-42
2022/08/28 02:06:35;;;;;;;42.70;35.03;;;;;;;;;;4898850;29;20176;-42
2022/08/28 02:09:01;;;;;;;42.97;34.50;;;;;;;;;;4897064;29;20203;-43
2022/08/28 02:11:31;;;;;;;47.97;36.60;;;;;;;;;;4897261;29;20207;-43
2022/08/28 02:13:58;;;;;;;38.33;31.80;;;;;;;;;;4891758;29;20219;-42
2022/08/28 02:16:24;;;;;;;37.20;31.53;;;;;;;;;;4893497;29;20373;-41
2022/08/28 02:18:50;;;;;;;37.73;31.07;;;;;;;;;;4908736;28;20172;-42
2022/08/28 02:21:17;;;;;;;39.93;33.63;;;;;;;;;;4893156;29;20177;-42
2022/08/28 02:23:44;;;;;;;52.23;40.53;;;;;;;;;;4894197;29;20231;-42
2022/08/28 02:26:11;;;;;;;56.57;43.83;;;;;;;;;;4894549;29;20900;-43
2022/08/28 02:28:38;;;;;;;52.13;39.33;;;;;;;;;;4897903;29;20530;-43
2022/08/28 02:31:07;;;;;;;57.70;44.80;;;;;;;;;;4891637;29;20382;-42
2022/08/28 02:33:33;;;;;;;60.83;46.07;;;;;;;;;;4895701;29;20816;-42
2022/08/28 02:35:59;;;;;;;54.97;42.23;;;;;;;;;;4894775;29;20444;-42
2022/08/28 02:38:25;;;;;;;57.53;45.47;;;;;;;;;;4897531;29;20180;-43
2022/08/28 02:40:52;;;;;;;48.17;39.37;;;;;;;;;;4894142;29;20192;-43
2022/08/28 02:43:18;;;;;;;51.93;42.67;;;;;;;;;;4894052;29;20709;-43
2022/08/28 02:45:44;;;;;;;49.87;39.93;;;;;;;;;;4897426;29;20841;-43
2022/08/28 02:48:10;;;;;;;46.10;38.70;;;;;;;;;;4898862;29;20232;-41
2022/08/28 02:50:37;;;;;;;42.17;35.43;;;;;;;;;;4897260;29;20705;-43
2022/08/28 02:53:03;;;;;;;42.30;35.37;;;;;;;;;;4891075;29;20788;-41
2022/08/28 02:55:30;;;;;;;38.63;34.47;;;;;;;;;;4895658;29;20459;-42
2022/08/28 02:57:56;;;;;;;36.47;31.20;;;;;;;;;;4898675;29;20294;-43
2022/08/28 03:00:23;;;;;;;43.37;37.53;;;;;;;;;;4901598;29;20849;-41
2022/08/28 03:02:49;;;;;;;40.73;35.60;;;;;;;;;;4897251;29;20175;-40
2022/08/28 03:05:17;;;;;;;39.73;34.57;;;;;;;;;;4898090;29;20180;-42
2022/08/28 03:07:43;;;;;;;42.70;36.43;;;;;;;;;;4896126;29;20231;-42
2022/08/28 03:10:09;;;;;;;41.87;34.90;;;;;;;;;;4901840;29;20600;-43
2022/08/28 03:12:35;;;;;;;47.30;37.93;;;;;;;;;;4897671;29;20626;-43
2022/08/28 03:15:01;;;;;;;43.17;36.13;;;;;;;;;;4900356;29;20180;-42
2022/08/28 03:17:28;;;;;;;46.00;38.27;;;;;;;;;;4900325;29;20569;-42
2022/08/28 03:19:54;;;;;;;51.27;41.43;;;;;;;;;;4897671;29;20614;-42
2022/08/28 03:25:16;;;;;;;44.40;37.77;;;;;;;;;;4911922;28;20355;-40
2022/08/28 03:27:42;;;;;;;46.37;40.17;;;;;;;;;;4899655;29;20219;-42
2022/08/28 03:30:08;;;;;;;47.40;40.33;;;;;;;;;;4900711;29;20299;-43
2022/08/28 03:32:35;;;;;;;50.13;40.63;;;;;;;;;;4903343;28;20183;-43
2022/08/28 03:35:01;;;;;;;51.37;41.63;;;;;;;;;;4902886;29;20620;-41
2022/08/28 03:37:27;;;;;;;51.33;42.27;;;;;;;;;;4895663;29;20431;-41
2022/08/28 03:39:53;;;;;;;42.23;36.00;;;;;;;;;;4895851;29;20850;-42
2022/08/28 03:42:20;;;;;;;50.57;41.10;;;;;;;;;;4900619;29;20857;-41
2022/08/28 03:44:47;;;;;;;47.40;40.63;;;;;;;;;;4902432;29;20184;-41
2022/08/28 03:47:13;;;;;;;48.47;39.57;;;;;;;;;;4896231;28;20188;-41
2022/08/28 03:49:40;;;;;;;47.40;38.43;;;;;;;;;;4894912;29;20208;-43
2022/08/28 03:52:06;;;;;;;49.80;40.30;;;;;;;;;;4897109;29;20482;-42
2022/08/28 03:54:32;;;;;;;51.90;40.80;;;;;;;;;;4901026;29;20965;-42
2022/08/28 03:56:58;;;;;;;47.13;39.83;;;;;;;;;;4900682;29;20179;-42
2022/08/28 03:59:24;;;;;;;47.97;38.57;;;;;;;;;;4897678;29;20295;-42
2022/08/28 04:01:51;;;;;;;47.90;39.13;;;;;;;;;;4894291;29;20191;-42
2022/08/28 04:04:17;;;;;;;45.50;37.10;;;;;;;;;;4894992;29;20417;-41
2022/08/28 04:06:43;;;;;;;49.27;40.90;;;;;;;;;;4899013;29;20181;-43
2022/08/28 04:09:09;;;;;;;47.67;36.87;;;;;;;;;;4896927;28;20553;-43
2022/08/28 04:11:42;;;;;;;51.83;37.83;;;;;;;;;;4895273;29;20243;-42
2022/08/28 04:14:09;;;;;;;59.23;43.57;;;;;;;;;;4897868;29;20837;-41
2022/08/28 04:16:35;;;;;;;54.00;42.80;;;;;;;;;;4895200;29;20196;-42
2022/08/28 04:19:01;;;;;;;58.70;45.13;;;;;;;;;;4894970;29;20423;-42
2022/08/28 04:21:27;;;;;;;59.20;47.53;;;;;;;;;;4897034;29;20639;-42
2022/08/28 04:23:54;;;;;;;61.57;48.33;;;;;;;;;;4900897;29;20203;-42
2022/08/28 04:26:22;;;;;;;64.77;47.53;;;;;;;;;;4899030;28;20835;-42
2022/08/28 04:28:48;;;;;;;53.97;44.97;;;;;;;;;;4894572;29;20243;-43
2022/08/28 04:31:16;;;;;;;52.83;42.77;;;;;;;;;;4897159;29;20184;-41
2022/08/28 04:33:42;;;;;;;50.60;40.73;;;;;;;;;;4897184;29;20188;-42
2022/08/28 04:36:13;;;;;;;47.77;39.93;;;;;;;;;;4897080;29;20628;-42
2022/08/28 04:38:39;;;;;;;51.50;42.40;;;;;;;;;;4893478;29;20188;-42
2022/08/28 04:41:07;;;;;;;44.93;37.17;;;;;;;;;;4894228;29;20932;-43
2022/08/28 04:43:33;;;;;;;50.37;42.43;;;;;;;;;;4901744;29;20666;-41
2022/08/28 04:46:03;;;;;;;47.43;40.33;;;;;;;;;;4899127;29;20198;-41
2022/08/28 04:48:29;;;;;;;47.97;40.00;;;;;;;;;;4894680;29;20219;-42
2022/08/28 04:50:55;;;;;;;50.83;42.43;;;;;;;;;;4893230;29;20712;-42
2022/08/28 04:53:21;;;;;;;52.07;42.60;;;;;;;;;;4897145;29;20187;-43
2022/08/28 04:55:49;;;;;;;49.93;40.03;;;;;;;;;;4901239;29;20716;-42
2022/08/28 04:58:15;;;;;;;52.90;41.17;;;;;;;;;;4897177;29;20194;-42
2022/08/28 05:00:47;;;;;;;49.57;40.90;;;;;;;;;;4895630;29;20188;-42
2022/08/28 05:03:13;;;;;;;46.87;39.47;;;;;;;;;;4895388;29;20192;-42
2022/08/28 05:05:43;;;;;;;48.97;39.40;;;;;;;;;;4898879;29;20195;-42
2022/08/28 05:08:09;;;;;;;43.73;38.00;;;;;;;;;;4896629;28;21019;-41
2022/08/28 05:10:35;;;;;;;42.70;37.33;;;;;;;;;;4894887;29;20519;-42
2022/08/28 05:13:01;;;;;;;49.97;40.10;;;;;;;;;;4898450;29;20645;-40
2022/08/28 05:15:27;;;;;;;50.27;40.63;;;;;;;;;;4897668;29;20195;-41
2022/08/28 05:17:53;;;;;;;40.03;35.70;;;;;;;;;;4897422;29;20678;-42
2022/08/28 05:20:19;;;;;;;42.83;35.50;;;;;;;;;;4894486;29;20762;-42
2022/08/28 05:22:46;;;;;;;43.87;37.00;;;;;;;;;;4894465;29;20583;-43
2022/08/28 05:25:13;;;;;;;37.30;32.10;;;;;;;;;;4897458;29;20645;-43
2022/08/28 05:27:40;;;;;;;46.60;36.87;;;;;;;;;;4900613;29;20255;-42
2022/08/28 05:30:07;;;;;;;45.23;36.40;;;;;;;;;;4899743;29;20200;-43
2022/08/28 05:32:33;;;;;;;38.73;34.00;;;;;;;;;;4895782;29;20185;-42
2022/08/28 05:34:59;;;;;;;38.47;33.23;;;;;;;;;;4892957;29;20673;-43
2022/08/28 05:37:26;;;;;;;38.63;34.03;;;;;;;;;;4895052;29;20913;-42
2022/08/28 05:39:52;;;;;;;33.70;30.00;;;;;;;;;;4898729;29;20294;-41
2022/08/28 05:42:18;;;;;;;39.53;34.07;;;;;;;;;;4900079;29;20632;-42
2022/08/28 05:44:44;;;;;;;39.83;32.40;;;;;;;;;;4897737;29;20646;-43
2022/08/28 05:47:11;;;;;;;36.70;30.80;;;;;;;;;;4896332;29;20691;-42
2022/08/28 05:49:38;;;;;;;37.03;31.87;;;;;;;;;;4894499;29;20628;-42
2022/08/28 05:52:04;;;;;;;42.70;38.13;;;;;;;;;;4896946;29;20527;-42
2022/08/28 05:54:30;;;;;;;41.77;36.43;;;;;;;;;;4898448;29;20577;-43
2022/08/28 05:56:56;;;;;;;38.43;34.30;;;;;;;;;;4898937;29;20180;-43
2022/08/28 05:59:24;;;;;;;37.03;33.00;;;;;;;;;;4892586;29;20482;-43
2022/08/28 06:01:50;;;;;;;41.87;36.83;;;;;;;;;;4893479;29;20190;-43
2022/08/28 06:04:18;;;;;;;36.30;32.40;;;;;;;;;;4897143;29;20651;-43
2022/08/28 06:06:45;;;;;;;42.70;36.23;;;;;;;;;;4898063;29;20191;-43
2022/08/28 06:09:18;;;;;;;38.70;34.47;;;;;;;;;;4894465;29;20204;-42
2022/08/28 06:11:44;;;;;;;40.53;35.50;;;;;;;;;;4891961;29;20274;-43
2022/08/28 06:14:12;;;;;;;40.47;35.17;;;;;;;;;;4892999;29;20315;-42
2022/08/28 06:16:40;;;;;;;41.30;35.23;;;;;;;;;;4895250;29;20177;-43
2022/08/28 06:19:08;;;;;;;36.13;32.23;;;;;;;;;;4895191;29;20303;-43
2022/08/28 06:21:34;;;;;;;32.17;28.53;;;;;;;;;;4893509;29;20762;-42
2022/08/28 06:24:00;;;;;;;33.60;25.80;;;;;;;;;;4891750;29;20746;-42
2022/08/28 06:26:26;;;;;;;27.73;24.07;;;;;;;;;;4897156;29;20545;-43
2022/08/28 06:28:52;;;;;;;26.50;23.63;;;;;;;;;;4891769;29;20598;-43
2022/08/28 06:31:19;;;;;;;27.20;23.13;;;;;;;;;;4888801;29;20180;-43
2022/08/28 06:33:45;;;;;;;29.20;23.97;;;;;;;;;;4892733;29;20622;-43
2022/08/28 06:36:11;;;;;;;28.50;24.70;;;;;;;;;;4892339;29;20184;-42
2022/08/28 06:38:38;;;;;;;26.37;23.60;;;;;;;;;;4896949;29;20207;-43
2022/08/28 06:41:10;;;;;;;28.20;25.07;;;;;;;;;;4894989;29;20235;-42
2022/08/28 06:43:36;;;;;;;28.57;25.67;;;;;;;;;;4889890;29;20615;-43
2022/08/28 06:46:03;;;;;;;29.60;26.40;;;;;;;;;;4891813;29;20191;-42
2022/08/28 06:48:51;;;;;;;29.73;26.37;;;;;;;;;;4893498;29;20214;-43
2022/08/28 06:51:17;;;;;;;34.33;30.33;;;;;;;;;;4856404;29;20180;-43
2022/08/28 06:53:44;;;;;;;30.70;26.60;;;;;;;;;;4885218;28;20180;-43
2022/08/28 06:56:17;;;;;;;33.43;28.93;;;;;;;;;;4892418;29;20244;-43
2022/08/28 06:58:44;;;;;;;34.63;29.40;;;;;;;;;;4886930;29;20476;-43
2022/08/28 07:01:16;;;;;;;34.63;29.83;;;;;;;;;;4885237;29;20965;-42
2022/08/28 07:03:42;;;;;;;34.67;30.70;;;;;;;;;;4888228;29;20227;-41
2022/08/28 07:06:10;;;;;;;34.57;29.93;;;;;;;;;;4894304;29;20180;-43
2022/08/28 07:08:36;;;;;;;30.00;26.80;;;;;;;;;;4888448;29;20204;-43
2022/08/28 07:11:20;;;;;;;31.30;26.50;;;;;;;;;;4893526;29;20180;-43
2022/08/28 07:13:47;;;;;;;31.37;27.33;;;;;;;;;;4893694;29;20176;-43
2022/08/28 07:16:15;;;;;;;32.00;25.80;;;;;;;;;;4892673;29;20187;-42
2022/08/28 07:18:41;;;;;;;28.30;24.70;;;;;;;;;;4896228;29;20179;-43
2022/08/28 07:21:07;;;;;;;34.37;26.77;;;;;;;;;;4894751;28;20242;-43
2022/08/28 07:23:34;;;;;;;36.10;27.20;;;;;;;;;;4892199;29;20350;-43
2022/08/28 07:26:04;;;;;;;33.10;28.23;;;;;;;;;;4896130;29;20185;-43
2022/08/28 07:28:31;;;;;;;33.40;28.60;;;;;;;;;;4895023;29;20695;-43
2022/08/28 07:30:58;;;;;;;36.77;28.63;;;;;;;;;;4890499;29;20926;-43
2022/08/28 07:33:25;;;;;;;31.70;26.03;;;;;;;;;;4884306;29;20494;-43
2022/08/28 07:35:52;;;;;;;36.87;30.43;;;;;;;;;;4889498;29;20183;-43
2022/08/28 07:38:18;;;;;;;39.77;31.30;;;;;;;;;;4892678;29;20188;-44
2022/08/28 07:40:44;;;;;;;39.57;31.57;;;;;;;;;;4890854;29;20353;-43
2022/08/28 07:46:05;;;;;;;39.53;32.50;;;;;;;;;;4891343;29;20195;-43
2022/08/28 07:48:32;;;;;;;36.23;30.83;;;;;;;;;;4890228;29;20247;-43
2022/08/28 07:50:58;;;;;;;36.40;30.87;;;;;;;;;;4895254;28;20401;-43
2022/08/28 07:53:24;;;;;;;36.97;31.07;;;;;;;;;;4891259;29;20184;-43
2022/08/28 07:55:50;;;;;;;35.30;30.17;;;;;;;;;;4887669;29;20936;-43
2022/08/28 07:58:17;;;;;;;38.73;31.00;;;;;;;;;;4896206;29;20299;-43
2022/08/28 08:00:44;;;;;;;39.07;31.33;;;;;;;;;;4898199;29;20472;-43
2022/08/28 08:03:10;;;;;;;33.33;28.77;;;;;;;;;;4896802;29;20192;-43
2022/08/28 08:05:36;;;;;;;28.87;25.63;;;;;;;;;;4894941;29;20183;-43
2022/08/28 08:08:03;;;;;;;34.13;27.00;;;;;;;;;;4895517;29;20433;-42
2022/08/28 08:10:29;;;;;;;31.53;26.67;;;;;;;;;;4898457;29;20558;-43
2022/08/28 08:12:55;;;;;;;30.77;26.70;;;;;;;;;;4898621;29;20172;-42
2022/08/28 08:15:21;;;;;;;31.73;27.67;;;;;;;;;;4898131;29;20180;-43
2022/08/28 08:17:47;;;;;;;33.43;28.77;;;;;;;;;;4896671;29;20711;-44
2022/08/28 08:20:13;;;;;;;27.43;24.53;;;;;;;;;;4895761;29;20736;-42
2022/08/28 08:22:39;;;;;;;27.73;23.67;;;;;;;;;;4899548;29;20180;-43
2022/08/28 08:25:06;;;;;;;28.83;24.87;;;;;;;;;;4901168;29;20729;-43
2022/08/28 08:27:32;;;;;;;28.50;23.70;;;;;;;;;;4895384;29;20975;-43
2022/08/28 08:29:58;;;;;;;24.90;20.27;;;;;;;;;;4892422;29;20228;-43
2022/08/28 08:32:24;;;;;;;28.83;25.00;;;;;;;;;;4895812;29;20172;-44
2022/08/28 08:34:54;;;;;;;31.37;27.07;;;;;;;;;;4894534;29;20176;-43
2022/08/28 08:37:20;;;;;;;27.60;23.57;;;;;;;;;;4896561;29;20515;-42
2022/08/28 08:39:46;;;;;;;23.03;18.97;;;;;;;;;;4894600;29;20498;-43
2022/08/28 08:42:27;;;;;;;25.57;20.47;;;;;;;;;;4895529;29;20677;-43
2022/08/28 08:44:54;;;;;;;24.23;21.63;;;;;;;;;;4898106;29;20473;-43
2022/08/28 08:47:36;;;;;;;27.00;23.43;;;;;;;;;;4895526;29;20256;-44
2022/08/28 08:50:06;;;;;;;25.40;22.23;;;;;;;;;;4894360;29;20228;-43
2022/08/28 08:52:48;;;;;;;23.43;19.97;;;;;;;;;;4895914;29;20196;-44
2022/08/28 08:55:25;;;;;;;25.07;22.37;;;;;;;;;;4898489;29;20618;-43
2022/08/28 08:58:01;;;;;;;23.70;20.00;;;;;;;;;;4898399;29;20632;-43
2022/08/28 09:00:28;;;;;;;24.30;20.20;;;;;;;;;;4894958;29;20516;-41
2022/08/28 09:02:58;;;;;;;23.90;21.40;;;;;;;;;;4897175;29;20653;-42
2022/08/28 09:05:30;;;;;;;23.63;21.07;;;;;;;;;;4895545;29;20709;-41
2022/08/28 09:08:00;;;;;;;24.30;21.73;;;;;;;;;;4896269;29;20201;-41
2022/08/28 09:10:35;;;;;;;23.10;20.70;;;;;;;;;;4892941;29;20199;-42
2022/08/28 09:13:21;;;;;;;24.93;21.53;;;;;;;;;;4892032;29;20688;-42
2022/08/28 09:15:47;;;;;;;26.33;23.63;;;;;;;;;;4893736;29;20258;-42
2022/08/28 09:18:19;;;;;;;23.80;20.53;;;;;;;;;;4891868;29;20185;-41
2022/08/28 09:20:49;;;;;;;19.10;17.10;;;;;;;;;;4905092;28;20720;-41
2022/08/28 09:23:15;;;;;;;14.17;12.77;;;;;;;;;;4896449;29;20650;-42
2022/08/28 09:25:44;;;;;;;12.23;10.57;;;;;;;;;;4890281;29;21550;-42
2022/08/28 09:28:14;;;;;;;11.93;10.73;;;;;;;;;;4862968;28;20946;-42
2022/08/28 09:30:41;;;;;;;17.70;12.97;;;;;;;;;;4836774;28;20232;-41
2022/08/28 09:33:07;;;;;;;13.03;11.73;;;;;;;;;;4849575;28;20910;-42
2022/08/28 09:35:36;;;;;;;15.47;12.97;;;;;;;;;;4899975;28;20356;-42
2022/08/28 09:38:21;;;;;;;18.00;15.93;;;;;;;;;;4865758;28;20231;-40
2022/08/28 09:43:32;;;;;;;18.13;15.67;;;;;;;;;;4907903;28;20534;-41
2022/08/28 09:46:17;;;;;;;20.33;17.23;;;;;;;;;;4911251;28;20173;-42
2022/08/28 09:48:44;;;;;;;19.57;15.57;;;;;;;;;;4906331;28;20846;-42
2022/08/28 09:51:29;;;;;;;21.57;18.93;;;;;;;;;;4907456;28;20208;-42
2022/08/28 09:54:17;;;;;;;15.60;13.97;;;;;;;;;;4906409;28;20187;-42
2022/08/28 09:56:44;;;;;;;19.00;16.30;;;;;;;;;;4910434;28;20171;-41
2022/08/28 09:59:21;;;;;;;17.47;14.93;;;;;;;;;;4909081;28;20323;-40
2022/08/28 10:02:13;;;;;;;19.57;17.17;;;;;;;;;;4909237;28;21836;-42
2022/08/28 10:04:51;;;;;;;21.23;18.27;;;;;;;;;;4914875;28;20257;-42
2022/08/28 10:07:26;;;;;;;21.70;17.87;;;;;;;;;;4913953;28;20171;-41
2022/08/28 10:09:57;;;;;;;17.77;15.40;;;;;;;;;;4913271;28;20298;-42
2022/08/28 10:12:27;;;;;;;18.63;15.90;;;;;;;;;;4904161;28;20220;-41
2022/08/28 10:14:53;;;;;;;17.77;14.53;;;;;;;;;;4899871;28;20220;-42
2022/08/28 10:17:31;;;;;;;21.27;18.20;;;;;;;;;;4881083;28;22477;-41
2022/08/28 10:20:01;;;;;;;22.53;18.53;;;;;;;;;;4885691;29;21012;-42
2022/08/28 10:22:27;;;;;;;19.37;16.70;;;;;;;;;;4888503;29;20184;-42
2022/08/28 10:24:56;;;;;;;19.60;16.97;;;;;;;;;;4892108;29;20803;-42
2022/08/28 10:27:25;;;;;;;18.07;16.27;;;;;;;;;;4891230;29;20177;-42
2022/08/28 10:30:14;;;;;;;23.30;20.67;;;;;;;;;;4886266;29;20191;-42
2022/08/28 10:32:40;;;;;;;24.23;20.93;;;;;;;;;;4889597;29;21044;-42
2022/08/28 10:35:10;;;;;;;22.67;19.93;;;;;;;;;;4891974;29;20207;-41
2022/08/28 10:37:52;;;;;;;24.00;20.90;;;;;;;;;;4891978;29;20211;-40
2022/08/28 10:40:24;;;;;;;21.23;17.30;;;;;;;;;;4890904;29;20207;-42
2022/08/28 10:42:55;;;;;;;18.33;16.33;;;;;;;;;;4890714;29;20799;-40
2022/08/28 10:45:25;;;;;;;20.70;16.60;;;;;;;;;;4891103;29;21030;-41
2022/08/28 10:47:57;;;;;;;20.57;15.37;;;;;;;;;;4890894;29;20279;-42
2022/08/28 10:50:28;;;;;;;16.93;13.40;;;;;;;;;;4891196;29;20215;-41
2022/08/28 10:53:01;;;;;;;19.17;17.10;;;;;;;;;;4887881;29;20242;-42
2022/08/28 10:55:46;;;;;;;18.77;15.47;;;;;;;;;;4901243;28;20192;-42
2022/08/28 10:58:15;;;;;;;17.87;15.03;;;;;;;;;;4887549;29;20226;-42
2022/08/28 11:00:42;;;;;;;16.80;14.23;;;;;;;;;;4890216;29;20746;-42
2022/08/28 11:03:16;;;;;;;18.30;15.17;;;;;;;;;;4887145;29;20278;-42
2022/08/28 11:05:48;;;;;;;15.23;13.20;;;;;;;;;;4890991;29;20177;-42
2022/08/28 11:08:24;;;;;;;17.67;12.30;;;;;;;;;;4888575;29;20200;-41
2022/08/28 11:10:52;;;;;;;17.50;13.37;;;;;;;;;;4884106;29;20183;-40
2022/08/28 11:13:36;;;;;;;11.80;10.60;;;;;;;;;;4885592;29;20184;-42
2022/08/28 11:16:09;;;;;;;11.90;10.60;;;;;;;;;;4889433;29;20247;-42
2022/08/28 11:18:36;;;;;;;12.77;10.07;;;;;;;;;;4895287;29;20185;-41
2022/08/28 11:21:07;;;;;;;12.03;10.83;;;;;;;;;;4890036;29;20185;-40
2022/08/28 11:23:41;;;;;;;13.43;10.50;;;;;;;;;;4885854;29;20191;-42
2022/08/28 11:26:09;;;;;;;13.03;9.93;;;;;;;;;;4887759;29;20250;-42
2022/08/28 11:28:35;;;;;;;10.03;8.90;;;;;;;;;;4888390;29;20200;-42
2022/08/28 11:31:04;;;;;;;11.83;10.30;;;;;;;;;;4881643;29;20210;-41
2022/08/28 11:33:35;;;;;;;11.77;9.87;;;;;;;;;;4888420;29;20215;-42
2022/08/28 11:36:01;;;;;;;12.57;9.80;;;;;;;;;;4886532;29;20175;-41
2022/08/28 11:38:43;;;;;;;12.50;11.10;;;;;;;;;;4879896;29;20188;-42
2022/08/28 11:41:13;;;;;;;12.63;10.30;;;;;;;;;;4886480;29;20192;-42
2022/08/28 11:43:42;;;;;;;10.20;7.77;;;;;;;;;;4883850;29;20184;-41
2022/08/28 11:46:11;;;;;;;9.37;7.70;;;;;;;;;;4881437;29;20543;-42
2022/08/28 11:48:42;;;;;;;10.27;9.03;;;;;;;;;;4885198;29;20724;-42
2022/08/28 11:51:17;;;;;;;10.80;8.30;;;;;;;;;;4886208;29;20519;-41
2022/08/28 11:53:57;;;;;;;9.40;7.53;;;;;;;;;;4880820;29;20930;-42
2022/08/28 11:56:26;;;;;;;9.93;6.83;;;;;;;;;;4879797;29;20310;-41
2022/08/28 11:58:55;;;;;;;9.20;6.60;;;;;;;;;;4883254;29;20311;-41
2022/08/28 12:01:29;;;;;;;7.80;6.53;;;;;;;;;;4889374;29;20177;-41
2022/08/28 12:04:02;;;;;;;5.80;5.30;;;;;;;;;;4883821;29;20669;-42
2022/08/28 12:06:47;;;;;;;5.80;5.30;;;;;;;;;;4878555;29;20948;-42
2022/08/28 12:09:25;;;;;;;4.90;4.40;;;;;;;;;;4877093;29;20653;-42
2022/08/28 12:11:59;;;;;;;6.03;5.33;;;;;;;;;;4885748;29;20202;-41
2022/08/28 12:14:25;;;;;;;5.47;4.93;;;;;;;;;;4881933;29;20468;-42
2022/08/28 12:17:11;;;;;;;5.53;4.67;;;;;;;;;;4896700;28;20306;-42
2022/08/28 12:19:45;;;;;;;6.27;4.40;;;;;;;;;;4902774;28;20188;-42
2022/08/28 12:22:15;;;;;;;4.87;4.20;;;;;;;;;;4886841;28;20177;-42
2022/08/28 12:25:01;;;;;;;7.17;4.13;;;;;;;;;;4889379;29;20212;-42
2022/08/28 12:27:29;;;;;;;4.50;3.77;;;;;;;;;;4884746;28;20219;-42
2022/08/28 12:29:55;;;;;;;5.47;4.30;;;;;;;;;;4885344;29;20204;-42
2022/08/28 12:32:47;;;;;;;6.03;3.80;;;;;;;;;;4896285;28;20192;-41
2022/08/28 12:35:21;;;;;;;7.00;3.97;;;;;;;;;;4885524;28;20188;-43
2022/08/28 12:37:53;;;;;;;6.17;3.90;;;;;;;;;;4888826;28;20331;-41
2022/08/28 12:40:25;;;;;;;8.43;3.57;;;;;;;;;;4887397;29;20184;-42
2022/08/28 12:42:59;;;;;;;5.20;3.73;;;;;;;;;;4878875;28;20231;-42
2022/08/28 12:45:25;;;;;;;5.60;4.43;;;;;;;;;;4891930;29;20721;-42
2022/08/28 12:47:52;;;;;;;5.90;3.90;;;;;;;;;;4901572;29;20287;-42
2022/08/28 12:50:24;;;;;;;6.73;4.93;;;;;;;;;;4895069;29;20303;-41
2022/08/28 12:52:51;;;;;;;4.93;4.40;;;;;;;;;;4885722;28;20363;-41
2022/08/28 12:55:18;;;;;;;6.17;4.20;;;;;;;;;;4896419;29;20442;-42
2022/08/28 12:57:45;;;;;;;4.47;4.07;;;;;;;;;;4897543;29;20180;-42
2022/08/28 13:00:15;;;;;;;6.50;4.00;;;;;;;;;;4903033;28;20248;-43
2022/08/28 13:02:42;;;;;;;5.40;3.80;;;;;;;;;;4909923;28;20528;-42
2022/08/28 13:05:21;;;;;;;4.40;3.87;;;;;;;;;;4908647;28;20754;-42
2022/08/28 13:07:49;;;;;;;5.73;3.73;;;;;;;;;;4913985;28;20187;-43
2022/08/28 13:10:20;;;;;;;5.50;3.60;;;;;;;;;;4909583;28;20184;-42
2022/08/28 13:12:51;;;;;;;4.63;3.70;;;;;;;;;;4912953;28;20255;-43
2022/08/28 13:15:40;;;;;;;4.43;3.10;;;;;;;;;;4909928;28;20179;-42
2022/08/28 13:18:07;;;;;;;5.23;3.13;;;;;;;;;;4914871;28;20179;-42
2022/08/28 13:20:35;;;;;;;3.50;3.20;;;;;;;;;;4913646;28;20519;-42
2022/08/28 13:23:01;;;;;;;3.93;3.50;;;;;;;;;;4915333;28;20287;-41
2022/08/28 13:25:30;;;;;;;6.03;4.23;;;;;;;;;;4915153;28;20618;-42
2022/08/28 13:28:01;;;;;;;5.17;4.07;;;;;;;;;;4915988;28;20207;-41
2022/08/28 13:30:32;;;;;;;4.20;3.80;;;;;;;;;;4918577;28;20184;-42
2022/08/28 13:33:17;;;;;;;4.67;3.90;;;;;;;;;;4913560;28;20691;-42
2022/08/28 13:35:43;;;;;;;5.17;4.33;;;;;;;;;;4914429;28;20172;-42
2022/08/28 13:38:11;;;;;;;4.57;4.17;;;;;;;;;;4911744;28;20207;-42
2022/08/28 13:40:43;;;;;;;5.93;4.60;;;;;;;;;;4912404;28;20171;-41
2022/08/28 13:43:09;;;;;;;6.93;4.47;;;;;;;;;;4916190;28;20172;-43
2022/08/28 13:45:36;;;;;;;5.43;4.73;;;;;;;;;;4915466;28;20585;-42
2022/08/28 13:48:03;;;;;;;5.23;4.40;;;;;;;;;;4914407;28;20522;-42
2022/08/28 13:50:29;;;;;;;6.07;5.03;;;;;;;;;;4912225;28;20190;-42
2022/08/28 13:52:55;;;;;;;6.30;4.40;;;;;;;;;;4915938;28;20184;-42
2022/08/28 13:55:22;;;;;;;5.60;4.37;;;;;;;;;;4914790;28;20171;-42
2022/08/28 13:57:48;;;;;;;6.17;4.37;;;;;;;;;;4914261;28;20386;-42
2022/08/28 14:00:14;;;;;;;6.23;4.23;;;;;;;;;;4911558;28;21150;-42
2022/08/28 14:05:26;;;;;;;5.00;4.50;;;;;;;;;;4910964;28;20386;-42
2022/08/28 14:07:52;;;;;;;9.20;4.77;;;;;;;;;;4913157;28;20176;-42
2022/08/28 14:10:18;;;;;;;5.77;4.30;;;;;;;;;;4909251;28;20176;-42
2022/08/28 14:12:46;;;;;;;5.67;4.73;;;;;;;;;;4909680;28;20175;-42
2022/08/28 14:15:13;;;;;;;6.47;4.10;;;;;;;;;;4912474;28;20494;-42
2022/08/28 14:17:39;;;;;;;6.57;4.50;;;;;;;;;;4912957;28;20526;-42
2022/08/28 14:20:06;;;;;;;4.67;4.20;;;;;;;;;;4907778;28;20877;-41
2022/08/28 14:22:34;;;;;;;4.77;4.33;;;;;;;;;;4911761;28;20384;-40
2022/08/28 14:25:00;;;;;;;5.33;4.00;;;;;;;;;;4909056;28;20187;-42
2022/08/28 14:27:27;;;;;;;4.67;4.20;;;;;;;;;;4906619;28;20751;-41
2022/08/28 14:29:53;;;;;;;4.73;4.00;;;;;;;;;;4917182;28;20294;-42
2022/08/28 14:32:20;;;;;;;6.23;4.20;;;;;;;;;;4913725;28;20506;-42
2022/08/28 14:34:46;;;;;;;5.93;4.17;;;;;;;;;;4909264;28;20210;-42
2022/08/28 14:37:13;;;;;;;5.17;4.63;;;;;;;;;;4913257;28;20190;-42
2022/08/28 14:39:39;;;;;;;5.97;4.40;;;;;;;;;;4911776;28;20231;-42
2022/08/28 14:42:05;;;;;;;6.03;4.03;;;;;;;;;;4914266;28;20933;-42
2022/08/28 14:44:31;;;;;;;6.40;4.33;;;;;;;;;;4912563;28;20743;-42
2022/08/28 14:46:57;;;;;;;5.37;4.10;;;;;;;;;;4915762;28;20822;-41